Fairdale, Kentucky
Current Conditions -  °F | °C
As of 1:26 PM on Saturday 20 Dec 2014 (Local Time) from KSDF Reporting Station
Overcast Overcast  
Wind Chill: 33°   Ceiling: 2300
Heat Index: 37°   Visibility: 8mi
Dew Point: 25°   Wind: 5mph
Humidity: 62%   Direction: 270°W
Pressure: 30.27"   Gusts: NA
Location:  38.1°N, 85.76°W
Report Text: KSDF 201826Z 27004KT 8SM BKN023 OVC060 03/M04 A3027 RMK AO2 T00281039
Loading
Personal Weather Stations






























Interactive Weather Map New forecast layout! Learn more

10-Day Weather Forecast

Advertisements
Track Severe Weather on mobile